Time;durP1;ratioP1;P1;durP2;ratioP2;P2;SDS_P1;SDS_P2;PMS_P1;PMS_P2;Temp;Humidity;BMP_temperature;BMP_pressure;BME280_temperature;BME280_humidity;BME280_pressure;Samples;Min_cycle;Max_cycle;Signal;HPM_P1;HPM_P2
2022/12/05 00:02:09;;;;;;;78.72;30.23;;;;;;;2.12;100.00;101733.06;4888715;29;20125;-73
2022/12/05 00:04:34;;;;;;;87.22;31.13;;;;;;;2.12;100.00;101731.28;4889659;29;20052;-74
2022/12/05 00:07:00;;;;;;;81.32;30.90;;;;;;;2.10;100.00;101729.56;4884887;29;20041;-74
2022/12/05 00:09:26;;;;;;;80.47;29.25;;;;;;;2.10;100.00;101735.69;4883008;29;20080;-74
2022/12/05 00:11:51;;;;;;;82.18;29.80;;;;;;;2.12;100.00;101735.69;4889633;29;20485;-74
2022/12/05 00:14:17;;;;;;;76.50;25.98;;;;;;;2.10;100.00;101735.69;4890347;29;20733;-76
2022/12/05 00:16:43;;;;;;;83.43;29.67;;;;;;;2.13;100.00;101738.28;4889485;29;20059;-75
2022/12/05 00:19:12;;;;;;;80.03;28.55;;;;;;;2.11;100.00;101740.09;4887410;29;20135;-74
2022/12/05 00:21:38;;;;;;;87.20;33.10;;;;;;;2.12;100.00;101728.66;4888970;29;20048;-75
2022/12/05 00:24:06;;;;;;;103.03;35.63;;;;;;;2.12;100.00;101731.28;4887512;29;20041;-75
2022/12/05 00:26:32;;;;;;;88.97;31.48;;;;;;;2.14;100.00;101731.25;4887471;29;20041;-75
2022/12/05 00:28:57;;;;;;;83.60;30.60;;;;;;;2.13;100.00;101722.50;4888384;29;20040;-76
2022/12/05 00:31:25;;;;;;;80.53;29.33;;;;;;;2.11;100.00;101726.94;4889665;29;20059;-75
2022/12/05 00:33:51;;;;;;;88.03;30.98;;;;;;;2.16;100.00;101727.72;4888659;29;20052;-74
2022/12/05 00:36:19;;;;;;;88.35;31.25;;;;;;;2.15;100.00;101725.97;4887330;29;20083;-74
2022/12/05 00:38:45;;;;;;;101.60;33.55;;;;;;;2.14;100.00;101718.09;4889133;29;20087;-75
2022/12/05 00:41:17;;;;;;;85.22;31.13;;;;;;;2.14;100.00;101708.44;4888652;29;20865;-73
2022/12/05 00:43:43;;;;;;;;;;;;;;;2.15;100.00;101718.06;4889285;29;20145;-76
2022/12/05 00:46:18;;;;;;;99.05;33.88;;;;;;;2.17;100.00;101718.06;4889554;29;19948;-75
2022/12/05 00:48:44;;;;;;;100.40;32.83;;;;;;;2.18;100.00;101715.41;4888915;29;20037;-75
2022/12/05 00:51:14;;;;;;;97.22;33.40;;;;;;;2.17;100.00;101713.69;4888807;29;20051;-75
2022/12/05 00:53:39;;;;;;;101.28;36.53;;;;;;;2.17;100.00;101712.81;4888627;29;20044;-75
2022/12/05 00:56:29;;;;;;;88.63;30.05;;;;;;;2.20;100.00;101710.13;4875873;29;20092;-73
2022/12/05 00:58:56;;;;;;;102.13;35.67;;;;;;;2.20;100.00;101713.63;4886597;29;20139;-76
2022/12/05 01:01:24;;;;;;;96.78;34.45;;;;;;;2.20;100.00;101716.25;4887169;29;20048;-76
2022/12/05 01:03:55;;;;;;;109.32;35.47;;;;;;;2.20;100.00;101718.88;4880637;29;20055;-74
2022/12/05 01:06:23;;;;;;;93.13;33.35;;;;;;;2.22;100.00;101718.88;4889683;29;20041;-74
2022/12/05 01:08:49;;;;;;;104.82;35.47;;;;;;;2.22;100.00;101722.38;4899728;29;20516;-75
2022/12/05 01:11:17;;;;;;;104.78;36.75;;;;;;;2.24;100.00;101720.56;4889649;29;20063;-74
2022/12/05 01:13:43;;;;;;;108.70;35.53;;;;;;;2.26;100.00;101724.06;4888673;29;20045;-74
2022/12/05 01:16:20;;;;;;;101.72;35.63;;;;;;;2.26;100.00;101721.44;4898018;29;20088;-75
2022/12/05 01:18:46;;;;;;;100.70;34.38;;;;;;;2.26;100.00;101717.91;4897641;29;20044;-74
2022/12/05 01:21:11;;;;;;;111.20;34.65;;;;;;;2.30;100.00;101723.09;4883613;29;20112;-74
2022/12/05 01:23:37;;;;;;;104.43;36.10;;;;;;;2.28;100.00;101724.91;4886682;29;20140;-75
2022/12/05 01:26:08;;;;;;;96.25;34.22;;;;;;;2.28;100.00;101727.53;4886871;29;20044;-74
2022/12/05 01:28:34;;;;;;;98.68;35.13;;;;;;;2.31;100.00;101730.13;4888308;29;20685;-75
2022/12/05 01:31:07;;;;;;;106.25;37.35;;;;;;;2.30;100.00;101731.00;4891331;29;20064;-73
2022/12/05 01:33:34;;;;;;;93.07;32.35;;;;;;;2.33;100.00;101736.25;4890316;29;20044;-75
2022/12/05 01:36:01;;;;;;;88.47;31.05;;;;;;;2.32;100.00;101731.00;4903253;29;20055;-74
2022/12/05 01:38:26;;;;;;;101.10;33.53;;;;;;;2.31;100.00;101731.91;4892676;29;20057;-75
2022/12/05 01:41:00;;;;;;;94.65;31.85;;;;;;;2.31;100.00;101734.53;4892044;29;20044;-74
2022/12/05 01:43:26;;;;;;;99.32;33.75;;;;;;;2.31;100.00;101735.41;4892788;29;20040;-76
2022/12/05 01:45:51;;;;;;;96.47;34.50;;;;;;;2.30;100.00;101732.78;4892945;29;20115;-76
2022/12/05 01:48:21;;;;;;;104.22;35.97;;;;;;;2.31;100.00;101737.16;4893138;29;20124;-74
2022/12/05 01:50:48;;;;;;;107.75;34.58;;;;;;;2.30;100.00;101740.66;4890262;29;20118;-75
2022/12/05 01:53:15;;;;;;;115.80;36.42;;;;;;;2.30;100.00;101740.66;4891838;29;20108;-75
2022/12/05 01:55:41;;;;;;;100.88;36.30;;;;;;;2.27;100.00;101738.97;4892575;29;20043;-73
2022/12/05 01:58:08;;;;;;;92.95;32.35;;;;;;;2.28;100.00;101738.06;4892171;29;20052;-75
2022/12/05 02:00:34;;;;;;;97.20;32.80;;;;;;;2.32;100.00;101742.41;4892163;29;20039;-75
2022/12/05 02:03:04;;;;;;;110.55;34.65;;;;;;;2.28;100.00;101740.69;4892069;29;20040;-75
2022/12/05 02:05:32;;;;;;;110.60;34.85;;;;;;;2.29;100.00;101731.91;4893455;29;20044;-75
2022/12/05 02:08:00;;;;;;;114.13;36.95;;;;;;;2.30;100.00;101738.03;4890086;29;20068;-76
2022/12/05 02:10:29;;;;;;;119.15;36.92;;;;;;;2.30;100.00;101735.41;4890685;29;20281;-74
2022/12/05 02:13:02;;;;;;;96.88;35.60;;;;;;;2.32;100.00;101741.53;4891868;29;20427;-72
2022/12/05 02:15:34;;;;;;;98.28;35.45;;;;;;;2.31;100.00;101743.31;4883171;29;20037;-74
2022/12/05 02:18:25;;;;;;;106.93;36.28;;;;;;;2.35;100.00;101744.09;4890857;29;20192;-74
2022/12/05 02:21:03;;;;;;;102.47;35.78;;;;;;;2.36;100.00;101742.34;4872816;29;20076;-75
2022/12/05 02:23:53;;;;;;;108.63;34.85;;;;;;;2.34;100.00;101745.88;4891484;29;20040;-74
2022/12/05 02:26:52;;;;;;;115.13;37.00;;;;;;;2.38;100.00;101741.44;4891775;29;20037;-75
2022/12/05 02:29:57;;;;;;;103.47;34.38;;;;;;;2.39;100.00;101744.94;4879880;29;20036;-75
2022/12/05 02:32:31;;;;;;;98.30;33.15;;;;;;;2.38;100.00;101735.31;4891233;29;20049;-75
2022/12/05 02:35:10;;;;;;;99.90;33.30;;;;;;;2.39;100.00;101737.03;4889470;29;20063;-76
2022/12/05 02:38:08;;;;;;;111.22;37.55;;;;;;;2.38;100.00;101740.56;4891440;29;20795;-75
2022/12/05 02:40:47;;;;;;;90.68;32.90;;;;;;;2.39;100.00;101751.06;4879274;29;20056;-75
2022/12/05 02:43:20;;;;;;;108.50;37.10;;;;;;;2.42;100.00;101740.50;4878555;29;20120;-74
2022/12/05 02:45:50;;;;;;;101.00;36.08;;;;;;;2.41;100.00;101741.41;4891061;29;20099;-73
2022/12/05 02:48:17;;;;;;;111.95;35.70;;;;;;;2.40;100.00;101746.66;4877523;29;20033;-76
2022/12/05 02:50:43;;;;;;;93.05;32.05;;;;;;;2.41;100.00;101748.41;4891245;29;20067;-76
2022/12/05 02:53:12;;;;;;;102.95;35.15;;;;;;;2.41;100.00;101745.75;4891672;29;20093;-76
2022/12/05 02:55:40;;;;;;;111.68;36.15;;;;;;;2.42;100.00;101745.75;4891221;29;20064;-76
2022/12/05 02:58:10;;;;;;;112.97;36.58;;;;;;;2.43;100.00;101741.38;4890828;29;20697;-75
2022/12/05 03:00:39;;;;;;;105.07;35.65;;;;;;;2.41;100.00;101745.75;4891737;29;20036;-74
2022/12/05 03:03:12;;;;;;;103.32;33.95;;;;;;;2.41;100.00;101746.66;4888976;29;20498;-75
2022/12/05 03:05:55;;;;;;;107.40;37.45;;;;;;;2.43;100.00;101757.16;4890131;29;20044;-75
2022/12/05 03:08:28;;;;;;;102.00;34.63;;;;;;;2.39;100.00;101743.16;4890484;29;20800;-74
2022/12/05 03:10:54;;;;;;;;;;;;;;;2.40;100.00;101746.66;4891070;29;20536;-75
2022/12/05 03:13:30;;;;;;;128.65;38.95;;;;;;;2.45;100.00;101742.19;4891628;29;19959;-75
2022/12/05 03:16:02;;;;;;;105.82;35.60;;;;;;;2.43;100.00;101742.22;4880293;29;20051;-74
2022/12/05 03:18:32;;;;;;;101.78;34.20;;;;;;;2.42;100.00;101745.75;4886406;29;20050;-75
2022/12/05 03:21:06;;;;;;;124.18;38.05;;;;;;;2.42;100.00;101745.75;4889220;29;20041;-76
2022/12/05 03:23:37;;;;;;;108.53;36.72;;;;;;;2.43;100.00;101744.88;4890592;29;20049;-75
2022/12/05 03:26:29;;;;;;;109.70;37.38;;;;;;;2.43;100.00;101744.88;4890367;29;20538;-73
2022/12/05 03:29:21;;;;;;;115.73;37.53;;;;;;;2.47;100.00;101753.59;4881000;29;20040;-76
2022/12/05 03:32:13;;;;;;;122.65;36.50;;;;;;;2.45;100.00;101744.84;4883576;29;20084;-75
2022/12/05 03:35:24;;;;;;;92.97;33.70;;;;;;;2.45;100.00;101743.06;4877746;29;20506;-74
2022/12/05 03:37:52;;;;;;;95.28;34.38;;;;;;;2.45;100.00;101758.84;4885609;29;20049;-75
2022/12/05 03:40:50;;;;;;;127.65;40.10;;;;;;;2.47;100.00;101748.34;4890231;29;20043;-76
2022/12/05 03:43:33;;;;;;;102.28;34.80;;;;;;;2.50;100.00;101749.13;4874273;29;20044;-75
2022/12/05 03:46:22;;;;;;;121.90;38.72;;;;;;;2.48;100.00;101755.31;4892787;29;20049;-76
2022/12/05 03:49:23;;;;;;;115.38;36.60;;;;;;;2.49;100.00;101747.41;4884017;29;20049;-76
2022/12/05 03:51:57;;;;;;;106.65;33.70;;;;;;;2.51;100.00;101752.63;4878450;29;20064;-76
2022/12/05 03:54:26;;;;;;;116.13;37.60;;;;;;;2.51;100.00;101752.63;4890285;29;20100;-75
2022/12/05 03:57:04;;;;;;;126.20;40.83;;;;;;;2.52;100.00;101742.09;4882823;29;20068;-77
2022/12/05 03:59:51;;;;;;;118.03;40.08;;;;;;;2.54;100.00;101747.31;4892294;29;20048;-76
2022/12/05 04:02:33;;;;;;;138.23;41.83;;;;;;;2.55;100.00;101751.69;4892195;29;20075;-73
2022/12/05 04:05:05;;;;;;;129.82;37.33;;;;;;;2.52;100.00;101754.41;4892454;29;20750;-75
2022/12/05 04:07:34;;;;;;;121.07;35.70;;;;;;;2.52;100.00;101751.75;4892498;29;20036;-74
2022/12/05 04:10:06;;;;;;;123.82;38.85;;;;;;;2.55;100.00;101756.97;4892274;29;20607;-75
2022/12/05 04:12:33;;;;;;;126.30;38.40;;;;;;;2.52;100.00;101752.63;4891947;29;20052;-75
2022/12/05 04:15:04;;;;;;;136.48;40.22;;;;;;;2.51;100.00;101753.53;4892322;29;20060;-76
2022/12/05 04:17:46;;;;;;;136.70;41.85;;;;;;;2.52;100.00;101754.41;4892247;29;20055;-77
2022/12/05 04:23:06;;;;;;;116.32;35.38;;;;;;;2.53;100.00;101754.34;4891674;29;20045;-75
2022/12/05 04:25:38;;;;;;;132.13;39.10;;;;;;;2.53;100.00;101749.09;4890493;29;20538;-75
2022/12/05 04:28:22;;;;;;;128.40;38.25;;;;;;;2.59;100.00;101759.53;4891203;29;20052;-75
2022/12/05 04:30:51;;;;;;;125.50;36.55;;;;;;;2.59;100.00;101754.25;4891119;29;20048;-76
2022/12/05 04:33:55;;;;;;;112.82;36.92;;;;;;;2.59;100.00;101758.66;4891333;29;20852;-76
2022/12/05 04:36:37;;;;;;;108.03;32.90;;;;;;;2.59;100.00;101753.38;4887748;29;20059;-76
2022/12/05 04:39:08;;;;;;;112.00;35.90;;;;;;;2.62;100.00;101749.84;4879498;29;20143;-76
2022/12/05 04:41:43;;;;;;;133.45;38.22;;;;;;;2.64;100.00;101753.31;4889076;29;20534;-75
2022/12/05 04:44:18;;;;;;;121.53;37.22;;;;;;;2.62;100.00;101750.72;4882558;29;20125;-75
2022/12/05 04:46:46;;;;;;;108.90;35.42;;;;;;;2.65;100.00;101758.56;4891210;29;20085;-74
2022/12/05 04:49:18;;;;;;;132.20;39.00;;;;;;;2.68;100.00;101753.25;4889561;29;20053;-76
2022/12/05 04:51:45;;;;;;;124.87;37.77;;;;;;;2.64;100.00;101753.31;4891704;29;20048;-75
2022/12/05 04:54:19;;;;;;;137.65;39.67;;;;;;;2.66;100.00;101752.41;4891999;29;20056;-74
2022/12/05 04:56:47;;;;;;;127.15;39.55;;;;;;;2.69;100.00;101754.97;4886755;29;20033;-75
2022/12/05 04:59:12;;;;;;;139.13;39.92;;;;;;;2.70;100.00;101755.84;4888667;29;20048;-74
2022/12/05 05:01:44;;;;;;;142.93;39.55;;;;;;;2.71;100.00;101749.69;4885772;29;20040;-76
2022/12/05 05:04:26;;;;;;;133.20;41.80;;;;;;;2.72;100.00;101752.31;4879024;29;20052;-75
2022/12/05 05:06:51;;;;;;;129.55;37.25;;;;;;;2.71;100.00;101753.22;4878381;29;20044;-74
2022/12/05 05:09:17;;;;;;;133.40;37.15;;;;;;;2.71;100.00;101747.94;4885664;29;20051;-74
2022/12/05 05:11:42;;;;;;;153.02;41.83;;;;;;;2.73;100.00;101746.16;4884694;29;20189;-73
2022/12/05 05:14:08;;;;;;;141.90;38.70;;;;;;;2.73;100.00;101754.03;4886537;29;20041;-75
2022/12/05 05:16:38;;;;;;;126.95;39.63;;;;;;;2.75;100.00;101757.50;4878398;29;20055;-75
2022/12/05 05:19:04;;;;;;;136.23;39.13;;;;;;;2.77;100.00;101753.09;4889513;29;20047;-75
2022/12/05 05:21:35;;;;;;;139.77;40.25;;;;;;;2.76;100.00;101756.63;4888106;29;20041;-74
2022/12/05 05:24:01;;;;;;;129.32;39.92;;;;;;;2.79;100.00;101763.59;4888363;29;20039;-75
2022/12/05 05:26:28;;;;;;;129.18;39.17;;;;;;;2.80;100.00;101765.34;4884054;29;20072;-74
2022/12/05 05:28:54;;;;;;;131.02;41.80;;;;;;;2.81;100.00;101765.34;4889508;29;20043;-74
2022/12/05 05:31:20;;;;;;;138.35;41.40;;;;;;;2.80;100.00;101771.47;4885740;29;20040;-73
2022/12/05 05:33:54;;;;;;;133.77;39.22;;;;;;;2.81;100.00;101757.44;4889560;29;20047;-75
2022/12/05 05:36:21;;;;;;;139.27;44.50;;;;;;;2.81;100.00;101767.97;4886043;29;20091;-74
2022/12/05 05:38:55;;;;;;;141.52;43.00;;;;;;;2.82;100.00;101761.81;4889565;29;20041;-74
2022/12/05 05:41:24;;;;;;;136.20;38.22;;;;;;;2.83;100.00;101762.66;4894499;29;20069;-73
2022/12/05 05:43:50;;;;;;;129.57;40.80;;;;;;;2.84;100.00;101764.41;4887408;29;20041;-73
2022/12/05 05:46:19;;;;;;;134.27;41.28;;;;;;;2.85;100.00;101771.41;4888353;29;20122;-74
2022/12/05 05:48:45;;;;;;;139.93;40.28;;;;;;;2.87;100.00;101763.50;4898178;29;20475;-75
2022/12/05 05:51:12;;;;;;;135.32;38.92;;;;;;;2.89;100.00;101766.97;4895810;29;20115;-75
2022/12/05 05:53:38;;;;;;;128.30;38.25;;;;;;;2.88;100.00;101768.72;4901068;29;20588;-73
2022/12/05 05:56:06;;;;;;;131.30;39.33;;;;;;;2.90;100.00;101772.19;4889562;29;20072;-73
2022/12/05 05:58:32;;;;;;;129.07;40.05;;;;;;;2.89;100.00;101772.22;4890424;29;20128;-74
2022/12/05 06:01:03;;;;;;;137.15;40.83;;;;;;;2.90;100.00;101764.28;4887324;29;20036;-74
2022/12/05 06:03:28;;;;;;;124.68;38.83;;;;;;;2.88;100.00;101771.38;4886551;29;20041;-74
2022/12/05 06:05:58;;;;;;;122.32;38.80;;;;;;;2.87;100.00;101768.75;4883769;29;20812;-72
2022/12/05 06:08:24;;;;;;;127.43;38.45;;;;;;;2.90;100.00;101763.44;4886400;29;20406;-73
2022/12/05 06:10:49;;;;;;;131.30;41.45;;;;;;;2.90;100.00;101758.16;4886525;29;20057;-75
2022/12/05 06:13:15;;;;;;;127.70;41.67;;;;;;;2.89;100.00;101772.22;4888835;29;20052;-73
2022/12/05 06:15:40;;;;;;;111.95;36.45;;;;;;;2.90;100.00;101761.66;4888739;29;20055;-75
2022/12/05 06:18:06;;;;;;;142.25;41.55;;;;;;;2.91;100.00;101765.16;4891167;29;20052;-74
2022/12/05 06:20:31;;;;;;;129.25;39.67;;;;;;;2.91;100.00;101766.03;4902576;29;20465;-74
2022/12/05 06:22:56;;;;;;;130.35;41.55;;;;;;;2.93;100.00;101768.66;4891799;29;20044;-75
2022/12/05 06:25:22;;;;;;;121.60;38.72;;;;;;;2.97;100.00;101762.44;4876226;29;20077;-75
2022/12/05 06:27:47;;;;;;;125.95;40.83;;;;;;;2.93;100.00;101766.88;4889619;29;20059;-75
2022/12/05 06:30:13;;;;;;;133.13;40.95;;;;;;;2.96;100.00;101771.22;4893628;29;20059;-75
2022/12/05 06:32:38;;;;;;;121.90;39.72;;;;;;;2.94;100.00;101762.47;4887706;29;20049;-75
2022/12/05 06:35:14;;;;;;;114.68;38.28;;;;;;;2.95;100.00;101770.34;4890362;29;20064;-74
2022/12/05 06:37:44;;;;;;;140.30;42.33;;;;;;;2.95;100.00;101770.34;4895362;29;20067;-74
2022/12/05 06:40:12;;;;;;;136.23;40.92;;;;;;;2.95;100.00;101778.25;4893385;29;20044;-75
2022/12/05 06:42:38;;;;;;;120.93;39.83;;;;;;;2.95;100.00;101778.25;4886507;29;20097;-75
2022/12/05 06:45:04;;;;;;;131.02;40.33;;;;;;;2.96;100.00;101785.28;4893506;29;20185;-76
2022/12/05 06:47:30;;;;;;;126.00;39.92;;;;;;;2.96;100.00;101774.75;4891942;29;20040;-75
2022/12/05 06:49:56;;;;;;;118.00;39.13;;;;;;;2.97;100.00;101781.75;4889248;29;20081;-75
2022/12/05 06:52:21;;;;;;;127.93;40.47;;;;;;;2.99;100.00;101786.97;4901888;29;20820;-75
2022/12/05 06:54:47;;;;;;;132.60;41.65;;;;;;;3.00;100.00;101789.59;4903385;29;20545;-74
2022/12/05 06:57:13;;;;;;;123.18;40.38;;;;;;;3.01;100.00;101788.72;4893781;29;20070;-74
2022/12/05 06:59:38;;;;;;;117.65;39.25;;;;;;;3.01;100.00;101786.06;4892649;29;20043;-75
2022/12/05 07:02:06;;;;;;;122.05;39.53;;;;;;;3.07;100.00;101793.00;4893292;29;20045;-74
2022/12/05 07:04:33;;;;;;;115.57;38.17;;;;;;;3.06;100.00;101796.50;4891343;29;20048;-76
2022/12/05 07:07:00;;;;;;;113.50;37.88;;;;;;;3.04;100.00;101796.53;4889675;29;20056;-76
2022/12/05 07:09:47;;;;;;;121.38;41.03;;;;;;;3.05;100.00;101790.38;4891356;29;20048;-74
2022/12/05 07:12:17;;;;;;;124.10;39.45;;;;;;;3.03;100.00;101794.81;4892142;29;20041;-75
2022/12/05 07:14:42;;;;;;;115.70;38.47;;;;;;;3.01;100.00;101798.34;4881699;29;20074;-76
2022/12/05 07:17:09;;;;;;;107.88;37.92;;;;;;;3.02;100.00;101789.56;4884396;29;20081;-74
2022/12/05 07:19:34;;;;;;;124.00;39.58;;;;;;;3.00;100.00;101788.72;4886465;29;20076;-76
2022/12/05 07:21:59;;;;;;;114.07;37.08;;;;;;;3.01;100.00;101793.09;4883253;29;20048;-75
2022/12/05 07:24:25;;;;;;;104.95;35.58;;;;;;;3.00;100.00;101799.25;4889905;29;20064;-75
2022/12/05 07:26:51;;;;;;;108.70;36.13;;;;;;;3.00;100.00;101796.63;4890385;29;20036;-74
2022/12/05 07:29:16;;;;;;;101.13;35.95;;;;;;;3.00;100.00;101800.13;4890315;29;20045;-75
2022/12/05 07:31:42;;;;;;;113.40;38.80;;;;;;;3.03;100.00;101799.22;4888438;29;20053;-75
2022/12/05 07:34:07;;;;;;;101.55;35.20;;;;;;;3.03;100.00;101805.34;4881422;29;20128;-74
2022/12/05 07:36:33;;;;;;;100.75;35.53;;;;;;;3.02;100.00;101805.38;4884095;29;20095;-74
2022/12/05 07:38:58;;;;;;;117.82;37.53;;;;;;;3.02;100.00;101811.53;4887293;29;20044;-77
2022/12/05 07:41:27;;;;;;;110.00;37.33;;;;;;;3.00;100.00;101815.94;4890873;29;20514;-74
2022/12/05 07:43:54;;;;;;;115.47;37.80;;;;;;;3.01;100.00;101812.41;4892295;29;20048;-76
2022/12/05 07:46:20;;;;;;;114.90;38.42;;;;;;;3.01;100.00;101820.31;4891785;29;20056;-74
2022/12/05 07:48:47;;;;;;;108.00;33.35;;;;;;;3.02;100.00;101826.47;4892261;29;20735;-75
2022/12/05 07:51:12;;;;;;;97.00;35.05;;;;;;;3.01;100.00;101825.59;4886696;29;20045;-74
2022/12/05 07:53:40;;;;;;;103.95;37.03;;;;;;;3.05;100.00;101829.03;4886828;29;20048;-75
2022/12/05 07:56:07;;;;;;;100.43;34.25;;;;;;;3.02;100.00;101826.47;4884636;29;20051;-75
2022/12/05 07:58:34;;;;;;;92.72;34.55;;;;;;;3.01;100.00;101827.34;4889062;29;20049;-75
2022/12/05 08:01:08;;;;;;;100.65;34.95;;;;;;;3.01;100.00;101824.69;4891822;29;20092;-75
2022/12/05 08:03:36;;;;;;;97.65;34.28;;;;;;;3.02;100.00;101829.97;4878437;29;20132;-75
2022/12/05 08:06:03;;;;;;;99.18;33.35;;;;;;;3.01;100.00;101824.69;4889194;29;20515;-74
2022/12/05 08:08:28;;;;;;;89.35;30.50;;;;;;;3.01;100.00;101827.34;4879603;29;20051;-76
2022/12/05 08:10:55;;;;;;;95.80;33.05;;;;;;;3.02;100.00;101829.09;4893221;29;20056;-74
2022/12/05 08:13:20;;;;;;;87.45;31.08;;;;;;;3.00;100.00;101837.00;4894554;29;20040;-75
2022/12/05 08:15:46;;;;;;;91.85;32.40;;;;;;;3.03;100.00;101838.72;4891793;29;20049;-73
2022/12/05 08:18:11;;;;;;;97.97;31.58;;;;;;;3.05;100.00;101840.44;4894931;29;20048;-75
2022/12/05 08:20:37;;;;;;;89.50;31.60;;;;;;;3.05;100.00;101842.19;4893883;29;20044;-75
2022/12/05 08:23:02;;;;;;;92.65;32.95;;;;;;;3.10;100.00;101846.50;4893986;29;20052;-74
2022/12/05 08:25:28;;;;;;;95.03;32.72;;;;;;;3.05;100.00;101852.75;4884577;29;20045;-74
2022/12/05 08:27:53;;;;;;;96.07;33.00;;;;;;;3.06;100.00;101854.47;4889490;29;20044;-75
2022/12/05 08:30:19;;;;;;;96.60;33.60;;;;;;;3.09;100.00;101852.66;4894418;29;20048;-74
2022/12/05 08:32:44;;;;;;;110.70;35.78;;;;;;;3.13;100.00;101858.78;4896582;29;20090;-75
2022/12/05 08:35:10;;;;;;;96.88;34.22;;;;;;;3.14;100.00;101863.13;4893411;29;20048;-76
2022/12/05 08:37:35;;;;;;;84.00;31.08;;;;;;;3.16;100.00;101860.47;4886336;29;20048;-75
2022/12/05 08:40:01;;;;;;;97.18;33.90;;;;;;;3.13;100.00;101860.53;4891876;29;20119;-75
2022/12/05 08:42:26;;;;;;;91.45;32.00;;;;;;;3.08;100.00;101863.25;4891634;29;20048;-74
2022/12/05 08:44:51;;;;;;;103.50;33.95;;;;;;;3.15;100.00;101874.53;4892263;29;20087;-74
2022/12/05 08:47:17;;;;;;;92.80;33.17;;;;;;;3.15;100.00;101870.13;4888256;29;20623;-74
2022/12/05 08:49:42;;;;;;;96.38;33.63;;;;;;;3.18;100.00;101864.84;4892595;29;20067;-77
2022/12/05 08:52:08;;;;;;;88.05;31.27;;;;;;;3.19;100.00;101869.19;4888670;29;20056;-76
2022/12/05 08:54:33;;;;;;;96.00;34.35;;;;;;;3.16;100.00;101869.25;4892100;29;20112;-74
2022/12/05 08:56:59;;;;;;;98.82;33.35;;;;;;;3.19;100.00;101870.97;4879005;29;20546;-76
2022/12/05 08:59:24;;;;;;;111.00;35.25;;;;;;;3.21;100.00;101864.75;4886966;29;20052;-74
2022/12/05 09:01:50;;;;;;;94.32;33.13;;;;;;;3.19;100.00;101869.19;4887990;29;20092;-76
2022/12/05 09:04:15;;;;;;;96.97;33.75;;;;;;;3.27;100.00;101869.97;4889590;29;20056;-75
2022/12/05 09:06:41;;;;;;;94.60;34.10;;;;;;;3.24;100.00;101872.63;4890773;29;20043;-75
2022/12/05 09:09:10;;;;;;;105.13;35.05;;;;;;;3.29;100.00;101873.44;4889911;29;20077;-75
2022/12/05 09:11:39;;;;;;;89.18;33.88;;;;;;;3.23;100.00;101872.66;4882051;29;20505;-77
2022/12/05 09:14:05;;;;;;;102.93;38.45;;;;;;;3.22;100.00;101873.56;4887598;29;20637;-76
2022/12/05 09:16:36;;;;;;;118.85;36.85;;;;;;;3.22;100.00;101879.72;4887783;29;20055;-74
2022/12/05 09:19:10;;;;;;;105.75;36.65;;;;;;;3.21;100.00;101877.94;4885442;29;20049;-75
2022/12/05 09:21:35;;;;;;;113.88;37.00;;;;;;;3.25;100.00;101878.78;4886992;29;20041;-75
2022/12/05 09:24:01;;;;;;;118.63;38.33;;;;;;;3.29;100.00;101880.47;4896613;29;20040;-77
2022/12/05 09:26:28;;;;;;;108.82;38.28;;;;;;;3.24;100.00;101880.53;4887013;29;20057;-75
2022/12/05 09:28:56;;;;;;;112.53;40.05;;;;;;;3.28;100.00;101887.50;4888940;29;20036;-76
2022/12/05 09:31:24;;;;;;;119.20;38.25;;;;;;;3.37;100.00;101891.75;4885023;29;20140;-76
2022/12/05 09:33:50;;;;;;;115.15;39.08;;;;;;;3.34;100.00;101892.69;4887200;29;20558;-76
2022/12/05 09:36:22;;;;;;;121.10;39.10;;;;;;;3.39;100.00;101900.50;4876571;29;20048;-74
2022/12/05 09:38:47;;;;;;;111.68;37.55;;;;;;;3.49;100.00;101890.69;4883445;29;20609;-75
2022/12/05 09:44:43;;;;;;;100.00;35.45;;;;;;;3.41;100.00;101897.84;4883168;29;20091;-76
2022/12/05 09:47:27;;;;;;;104.05;37.95;;;;;;;3.45;100.00;101904.81;4887682;29;20111;-77
2022/12/05 09:49:58;;;;;;;102.70;36.55;;;;;;;3.38;100.00;101909.31;4889540;29;20060;-75
2022/12/05 09:52:38;;;;;;;114.90;38.03;;;;;;;3.40;100.00;101907.50;4892196;29;20115;-77
2022/12/05 09:55:11;;;;;;;101.47;37.60;;;;;;;3.46;100.00;101909.19;4892535;29;20081;-77
2022/12/05 09:57:42;;;;;;;92.85;33.92;;;;;;;3.36;100.00;101904.09;4883588;29;20044;-76
2022/12/05 10:00:09;;;;;;;103.13;36.40;;;;;;;3.38;100.00;101904.91;4891831;29;20088;-77
2022/12/05 10:02:56;;;;;;;98.63;34.63;;;;;;;3.44;100.00;101908.34;4892404;29;20044;-75
2022/12/05 10:05:56;;;;;;;105.95;34.42;;;;;;;3.38;100.00;101907.56;4876010;29;20689;-77
2022/12/05 10:08:57;;;;;;;91.95;33.67;;;;;;;3.48;100.00;101907.41;4893125;29;20055;-76
2022/12/05 10:11:32;;;;;;;94.32;30.95;;;;;;;3.58;100.00;101903.72;4880810;29;20152;-76
2022/12/05 10:14:22;;;;;;;106.45;35.22;;;;;;;3.59;100.00;101901.03;4891375;29;20068;-77
2022/12/05 10:16:53;;;;;;;86.10;31.60;;;;;;;3.65;100.00;101902.69;4892475;29;20055;-77
2022/12/05 10:19:26;;;;;;;90.63;31.42;;;;;;;3.56;100.00;101903.72;4891500;29;20583;-76
2022/12/05 10:21:57;;;;;;;88.00;33.58;;;;;;;3.56;100.00;101898.44;4893201;29;20037;-76
2022/12/05 10:24:55;;;;;;;95.10;32.75;;;;;;;3.60;100.00;101905.41;4892480;29;20757;-75
2022/12/05 10:27:51;;;;;;;88.53;31.80;;;;;;;3.64;100.00;101901.81;4890803;29;20116;-75
2022/12/05 10:30:20;;;;;;;97.90;32.72;;;;;;;3.55;100.00;101896.72;4873179;29;20315;-76
2022/12/05 10:33:10;;;;;;;88.93;31.13;;;;;;;3.66;100.00;101893.88;4891690;29;20055;-75
2022/12/05 10:35:38;;;;;;;87.00;32.15;;;;;;;3.66;100.00;101895.66;4892889;29;20561;-78
2022/12/05 10:38:22;;;;;;;83.82;30.48;;;;;;;3.72;100.00;101890.28;4891387;29;20052;-76
2022/12/05 10:40:59;;;;;;;79.60;29.88;;;;;;;3.74;100.00;101888.47;4891202;29;20083;-77
2022/12/05 10:43:27;;;;;;;74.32;30.58;;;;;;;3.79;100.00;101884.00;4892030;29;20050;-75
2022/12/05 10:45:54;;;;;;;85.38;30.65;;;;;;;3.78;100.00;101882.25;4891984;29;20095;-77
2022/12/05 10:48:21;;;;;;;86.55;31.58;;;;;;;3.84;100.00;101880.38;4892998;29;20109;-74
2022/12/05 10:50:51;;;;;;;89.13;31.08;;;;;;;3.89;100.00;101878.50;4893367;29;20601;-75
2022/12/05 10:53:22;;;;;;;75.57;29.50;;;;;;;3.81;100.00;101879.53;4873840;29;20048;-75
2022/12/05 10:55:49;;;;;;;81.88;28.77;;;;;;;3.85;100.00;101883.88;4889447;29;20701;-75
2022/12/05 10:58:27;;;;;;;83.22;31.23;;;;;;;3.84;100.00;101883.00;4889317;29;20041;-76
2022/12/05 11:00:55;;;;;;;79.32;27.95;;;;;;;3.74;100.00;101881.44;4883755;29;20084;-77
2022/12/05 11:03:30;;;;;;;77.10;27.42;;;;;;;3.69;100.00;101880.66;4887041;29;20044;-75
2022/12/05 11:05:59;;;;;;;72.70;26.33;;;;;;;3.68;100.00;101878.03;4887720;29;20059;-75
2022/12/05 11:08:31;;;;;;;70.07;27.38;;;;;;;3.75;100.00;101885.81;4885155;29;20139;-76
2022/12/05 11:11:32;;;;;;;54.15;23.38;;;;;;;3.71;100.00;101870.94;4885805;29;20180;-76
2022/12/05 11:14:22;;;;;;;69.30;25.65;;;;;;;3.74;100.00;101878.78;4882426;29;20097;-76
2022/12/05 11:16:56;;;;;;;62.05;24.38;;;;;;;3.83;100.00;101876.00;4883684;29;20036;-76
2022/12/05 11:19:21;;;;;;;59.40;24.42;;;;;;;3.93;100.00;101871.41;4890261;29;20074;-76
2022/12/05 11:21:48;;;;;;;54.13;23.35;;;;;;;4.04;100.00;101872.06;4884750;29;20610;-76
2022/12/05 11:24:25;;;;;;;56.10;24.17;;;;;;;4.05;100.00;101875.56;4886722;29;20033;-77
2022/12/05 11:26:51;;;;;;;59.58;23.85;;;;;;;4.11;100.00;101871.03;4886413;29;20051;-77
2022/12/05 11:29:37;;;;;;;53.08;21.75;;;;;;;3.96;100.00;101866.06;4881749;29;20049;-75